Terminal Aerodrome Forecast
Issued by NWS

Home | Current Version | Previous Version | Text Only | Print | Product List | Glossary On
Versions: 1 2 3 4 5 6 7 8 9 10 11 12 13 14 15 16 17 18 19 20 21 22 23 24 25 26 27 28
000
FTUS43 KIND 300520
TAFLAF
TAF
KLAF 300520Z 3006/3106 10014G20KT P6SM VCSH OVC050
     FM301000 10013KT 6SM -SHRA VCTS OVC050CB
      TEMPO 3012/3013 4SM TS OVC040CB
     FM301300 10012KT 5SM -SHRA OVC040
      TEMPO 3013/3015 2SM TS OVC025CB
     FM301500 11012KT 6SM -SHRA VCTS OVC030CB
     FM301900 16012KT P6SM SHRA VCTS OVC045CB
     FM310000 17008KT P6SM -SHRA OVC080
      AMD LTD TO CLD VIS AND WIND TIL 301300=

USA.gov is the U.S. government's official web portal to all federal, state and local government web resources and services.